createdAt,value
2019-04-04T00:01:23.276Z,8.63
2019-04-04T00:07:21.107Z,9.57
2019-04-04T00:09:50.449Z,12.20
2019-04-04T00:12:19.771Z,8.73
2019-04-04T00:14:49.077Z,9.43
2019-04-04T00:17:18.390Z,6.33
2019-04-04T00:19:47.660Z,8.30
2019-04-04T00:22:17.048Z,13.10
2019-04-04T00:24:46.360Z,7.80
2019-04-04T00:27:15.686Z,10.10
2019-04-04T00:29:47.693Z,9.60
2019-04-04T00:32:16.533Z,9.40
2019-04-04T00:34:46.309Z,8.97
2019-04-04T00:37:15.661Z,8.80
2019-04-04T00:39:44.964Z,7.73
2019-04-04T00:42:15.043Z,8.87
2019-04-04T00:44:45.438Z,9.27
2019-04-04T00:47:14.956Z,9.43
2019-04-04T00:49:44.320Z,6.87
2019-04-04T00:52:13.666Z,8.53
2019-04-04T00:54:44.998Z,7.90
2019-04-04T00:57:14.810Z,11.00
2019-04-04T00:59:44.179Z,8.23
2019-04-04T01:02:13.525Z,8.77
2019-04-04T01:04:42.839Z,6.20
2019-04-04T01:07:12.298Z,6.60
2019-04-04T01:09:41.615Z,7.10
2019-04-04T01:12:10.967Z,7.43
2019-04-04T01:14:40.705Z,8.87
2019-04-04T01:17:09.986Z,7.67
2019-04-04T01:19:39.314Z,8.07
2019-04-04T01:22:08.641Z,5.10
2019-04-04T01:24:40.862Z,9.47
2019-04-04T01:27:10.210Z,6.53
2019-04-04T01:29:40.889Z,8.80
2019-04-04T01:32:11.010Z,7.30
2019-04-04T01:34:40.363Z,7.80
2019-04-04T01:37:09.765Z,7.63
2019-04-04T01:39:39.421Z,6.40
2019-04-04T01:42:09.362Z,8.20
2019-04-04T01:44:41.867Z,6.83
2019-04-04T01:47:10.292Z,8.07
2019-04-04T01:49:39.631Z,7.47
2019-04-04T01:52:08.883Z,6.20
2019-04-04T01:54:38.294Z,6.80
2019-04-04T01:57:08.224Z,7.53
2019-04-04T01:59:38.169Z,8.43
2019-04-04T02:02:07.468Z,6.40
2019-04-04T02:04:36.767Z,6.87
2019-04-04T02:07:06.106Z,6.10
2019-04-04T02:09:35.794Z,5.40
2019-04-04T02:12:07.645Z,8.43
2019-04-04T02:14:36.258Z,12.20
2019-04-04T02:17:05.627Z,7.47
2019-04-04T02:19:35.284Z,6.03
2019-04-04T02:22:04.625Z,7.67
2019-04-04T02:24:33.969Z,8.20
2019-04-04T02:27:04.933Z,6.03
2019-04-04T02:29:34.934Z,6.43
2019-04-04T02:32:08.465Z,6.53
2019-04-04T02:34:38.483Z,6.43
2019-04-04T02:37:08.445Z,6.50
2019-04-04T02:39:37.772Z,7.23
2019-04-04T02:42:07.085Z,7.47
2019-04-04T02:44:36.539Z,8.57
2019-04-04T02:47:05.883Z,6.03
2019-04-04T02:49:35.149Z,6.57
2019-04-04T02:52:04.499Z,7.87
2019-04-04T02:54:33.773Z,8.20
2019-04-04T02:57:03.066Z,7.90
2019-04-04T02:59:32.443Z,7.10
2019-04-04T03:02:05.238Z,7.00
2019-04-04T03:04:33.567Z,8.47
2019-04-04T03:07:02.862Z,7.97
2019-04-04T03:09:32.227Z,9.87
2019-04-04T03:12:01.502Z,7.30
2019-04-04T03:14:30.858Z,7.57
2019-04-04T03:17:00.170Z,7.10
2019-04-04T03:19:29.546Z,8.80
2019-04-04T03:21:58.831Z,8.67
2019-04-04T03:24:28.153Z,7.27
2019-04-04T03:26:57.428Z,6.00
2019-04-04T03:29:27.117Z,7.80
2019-04-04T03:31:56.408Z,8.07
2019-04-04T03:34:25.780Z,8.03
2019-04-04T03:36:55.121Z,8.00
2019-04-04T03:39:24.424Z,10.53
2019-04-04T03:41:53.758Z,8.23
2019-04-04T03:44:23.175Z,8.67
2019-04-04T03:46:52.508Z,14.73
2019-04-04T03:49:24.308Z,12.03
2019-04-04T03:51:52.865Z,6.53
2019-04-04T03:54:25.650Z,6.70
2019-04-04T03:56:55.408Z,8.20
2019-04-04T03:59:24.761Z,8.17
2019-04-04T04:01:54.062Z,9.77
2019-04-04T04:04:27.091Z,8.60
2019-04-04T04:06:54.502Z,10.23
2019-04-04T04:09:26.475Z,8.50
2019-04-04T04:11:54.875Z,8.70
2019-04-04T04:14:24.248Z,8.13
2019-04-04T04:16:53.968Z,7.53
2019-04-04T04:19:24.570Z,7.13
2019-04-04T04:21:54.753Z,9.40
2019-04-04T04:24:24.094Z,7.00
2019-04-04T04:26:53.377Z,8.03
2019-04-04T04:29:22.727Z,10.97
2019-04-04T04:31:52.312Z,7.43
2019-04-04T04:34:21.671Z,9.37
2019-04-04T04:36:50.954Z,9.17
2019-04-04T04:39:20.352Z,10.27
2019-04-04T04:41:52.979Z,10.83
2019-04-04T04:44:20.679Z,6.70
2019-04-04T04:46:51.028Z,7.20
2019-04-04T04:49:23.322Z,7.90
2019-04-04T04:51:51.794Z,6.73
2019-04-04T04:54:22.718Z,8.97
2019-04-04T04:56:52.124Z,10.10
2019-04-04T04:59:21.447Z,7.83
2019-04-04T05:01:51.335Z,11.17
2019-04-04T05:04:20.842Z,9.07
2019-04-04T05:06:50.927Z,8.43
2019-04-04T05:09:20.239Z,8.57
2019-04-04T05:11:50.313Z,7.27
2019-04-04T05:14:20.310Z,10.50
2019-04-04T05:16:49.620Z,8.90
2019-04-04T05:19:18.991Z,8.73
2019-04-04T05:21:49.023Z,9.17
2019-04-04T05:24:18.785Z,8.40
2019-04-04T05:26:48.182Z,10.60
2019-04-04T05:29:17.511Z,10.30
2019-04-04T05:31:49.883Z,7.40
2019-04-04T05:34:18.059Z,8.27
2019-04-04T05:36:47.448Z,11.23
2019-04-04T05:39:18.124Z,8.07
2019-04-04T05:41:48.104Z,9.87
2019-04-04T05:44:17.440Z,9.60
2019-04-04T05:46:46.739Z,13.20
2019-04-04T05:49:16.031Z,8.30
2019-04-04T05:51:46.354Z,8.57
2019-04-04T05:54:16.349Z,10.67
2019-04-04T05:56:48.774Z,10.90
2019-04-04T05:59:16.697Z,9.53
2019-04-04T06:01:49.025Z,10.27
2019-04-04T06:04:19.575Z,10.93
2019-04-04T06:06:55.733Z,17.70
2019-04-04T06:09:25.383Z,10.43
2019-04-04T06:11:55.301Z,10.43
2019-04-04T06:14:27.946Z,14.17
2019-04-04T06:16:57.765Z,9.80
2019-04-04T06:19:27.146Z,13.60
2019-04-04T06:21:56.441Z,14.50
2019-04-04T06:24:27.256Z,10.47
2019-04-04T06:26:56.793Z,12.53
2019-04-04T06:29:26.110Z,10.97
2019-04-04T06:31:55.999Z,13.20
2019-04-04T06:34:25.312Z,11.43
2019-04-04T06:36:54.810Z,16.73
2019-04-04T06:39:25.259Z,14.10
2019-04-04T06:41:55.067Z,13.00
2019-04-04T06:44:24.686Z,16.83
2019-04-04T06:46:54.230Z,12.40
2019-04-04T06:49:23.720Z,13.73
2019-04-04T06:51:52.955Z,13.70
2019-04-04T06:54:25.223Z,11.80
2019-04-04T06:56:53.323Z,15.70
2019-04-04T06:59:23.134Z,13.53
2019-04-04T07:01:52.685Z,14.67
2019-04-04T07:04:22.155Z,12.33
2019-04-04T07:06:51.533Z,15.70
2019-04-04T07:09:21.338Z,15.80
2019-04-04T07:11:50.713Z,12.57
2019-04-04T07:14:20.374Z,22.13
2019-04-04T07:16:49.734Z,13.50
2019-04-04T07:19:19.090Z,13.30
2019-04-04T07:21:49.151Z,15.83
2019-04-04T07:24:19.787Z,15.50
2019-04-04T07:26:49.140Z,16.30
2019-04-04T07:29:18.494Z,17.07
2019-04-04T07:31:47.765Z,11.30
2019-04-04T07:34:16.953Z,17.00
2019-04-04T07:36:46.307Z,24.37
2019-04-04T07:39:15.630Z,18.27
2019-04-04T07:41:45.156Z,20.60
2019-04-04T07:44:14.668Z,20.30
2019-04-04T07:46:45.699Z,15.57
2019-04-04T07:49:15.039Z,15.77
2019-04-04T07:51:44.435Z,14.30
2019-04-04T07:54:13.745Z,14.03
2019-04-04T07:56:46.872Z,14.37
2019-04-04T07:59:14.144Z,13.07
2019-04-04T08:01:51.080Z,17.20
2019-04-04T08:04:14.515Z,12.83
2019-04-04T08:06:43.819Z,13.10
2019-04-04T08:09:13.189Z,12.57
2019-04-04T08:11:42.547Z,11.73
2019-04-04T08:14:11.880Z,12.43
2019-04-04T08:16:41.356Z,11.70
2019-04-04T08:19:10.738Z,13.00
2019-04-04T08:21:40.048Z,8.47
2019-04-04T08:24:09.422Z,10.80
2019-04-04T08:26:39.117Z,10.13
2019-04-04T08:29:08.429Z,9.37
2019-04-04T08:31:37.732Z,9.90
2019-04-04T08:34:06.919Z,8.50
2019-04-04T08:36:36.301Z,9.60
2019-04-04T08:39:09.115Z,8.57
2019-04-04T08:41:38.463Z,8.90
2019-04-04T08:44:07.728Z,8.93
2019-04-04T08:46:37.052Z,14.17
2019-04-04T08:49:06.407Z,10.23
2019-04-04T08:51:35.721Z,8.10
2019-04-04T08:54:04.969Z,7.93
2019-04-04T08:56:34.310Z,10.93
2019-04-04T08:59:03.606Z,13.10
2019-04-04T09:01:32.938Z,7.87
2019-04-04T09:04:02.431Z,9.80
2019-04-04T09:06:31.700Z,8.53
2019-04-04T09:09:00.953Z,8.07
2019-04-04T09:11:30.293Z,7.47
2019-04-04T09:14:00.024Z,9.80
2019-04-04T09:16:29.405Z,7.77
2019-04-04T09:18:58.731Z,8.43
2019-04-04T09:21:28.034Z,9.80
2019-04-04T09:24:00.508Z,7.73
2019-04-04T09:26:28.655Z,11.37
2019-04-04T09:28:57.926Z,9.67
2019-04-04T09:31:27.281Z,8.23
2019-04-04T09:33:57.523Z,7.87
2019-04-04T09:36:26.813Z,10.40
2019-04-04T09:38:56.138Z,10.10
2019-04-04T09:41:25.524Z,11.80
2019-04-04T09:43:54.840Z,8.63
2019-04-04T09:46:24.793Z,9.30
2019-04-04T09:48:54.140Z,8.03
2019-04-04T09:51:23.430Z,8.83
2019-04-04T09:53:53.572Z,13.40
2019-04-04T09:56:23.391Z,12.10
2019-04-04T09:58:54.907Z,11.30
2019-04-04T10:01:24.028Z,10.10
2019-04-04T10:03:53.666Z,9.87
2019-04-04T10:06:23.042Z,8.60
2019-04-04T10:08:52.428Z,9.60
2019-04-04T10:11:21.729Z,12.00
2019-04-04T10:13:50.995Z,10.37
2019-04-04T10:16:20.375Z,9.50
2019-04-04T10:18:49.733Z,12.07
2019-04-04T10:21:19.081Z,12.50
2019-04-04T10:23:48.409Z,10.70
2019-04-04T10:26:17.723Z,10.43
2019-04-04T10:28:46.998Z,10.63
2019-04-04T10:31:16.350Z,8.90
2019-04-04T10:33:45.702Z,14.90
2019-04-04T10:36:15.309Z,10.10
2019-04-04T10:38:44.718Z,11.83
2019-04-04T10:41:14.120Z,12.03
2019-04-04T10:43:43.439Z,13.40
2019-04-04T10:46:12.774Z,10.07
2019-04-04T10:48:42.082Z,13.60
2019-04-04T10:51:11.469Z,14.20
2019-04-04T10:53:41.078Z,11.60
2019-04-04T10:56:10.394Z,11.20
2019-04-04T10:58:39.726Z,11.63
2019-04-04T11:01:09.208Z,13.20
2019-04-04T11:03:38.833Z,13.80
2019-04-04T11:06:08.201Z,11.50
2019-04-04T11:08:37.502Z,14.27
2019-04-04T11:11:06.901Z,12.37
2019-04-04T11:13:36.249Z,10.70
2019-04-04T11:16:05.591Z,10.50
2019-04-04T11:18:37.556Z,9.57
2019-04-04T11:21:06.819Z,12.60
2019-04-04T11:23:36.248Z,10.80
2019-04-04T11:26:05.709Z,11.23
2019-04-04T11:28:35.176Z,11.33
2019-04-04T11:31:06.919Z,10.60
2019-04-04T11:33:38.938Z,10.87
2019-04-04T11:36:08.298Z,10.70
2019-04-04T11:38:37.659Z,14.03
2019-04-04T11:41:06.933Z,12.77
2019-04-04T11:43:36.239Z,10.17
2019-04-04T11:46:05.539Z,8.53
2019-04-04T11:48:34.790Z,9.80
2019-04-04T11:51:04.142Z,12.10
2019-04-04T11:53:33.412Z,12.53
2019-04-04T11:56:02.743Z,9.73
2019-04-04T11:58:32.152Z,10.07
2019-04-04T12:01:04.163Z,11.00
2019-04-04T12:03:33.469Z,12.70
2019-04-04T12:06:02.810Z,13.20
2019-04-04T12:08:32.645Z,11.43
2019-04-04T12:11:02.151Z,14.53
2019-04-04T12:13:31.523Z,10.57
2019-04-04T12:16:00.887Z,12.60
2019-04-04T12:18:30.171Z,13.13
2019-04-04T12:20:59.780Z,12.73
2019-04-04T12:23:29.089Z,16.20
2019-04-04T12:25:58.918Z,11.50
2019-04-04T12:28:28.677Z,12.63
2019-04-04T12:30:57.970Z,15.20
2019-04-04T12:33:27.240Z,14.43
2019-04-04T12:35:56.544Z,18.20
2019-04-04T12:38:25.825Z,20.70
2019-04-04T12:40:55.124Z,14.47
2019-04-04T12:43:24.408Z,18.33
2019-04-04T12:45:56.697Z,14.93
2019-04-04T12:48:26.275Z,13.13
2019-04-04T12:50:55.578Z,17.77
2019-04-04T12:53:24.847Z,17.37
2019-04-04T12:55:54.433Z,16.40
2019-04-04T12:58:24.169Z,16.20
2019-04-04T13:00:53.459Z,18.07
2019-04-04T13:03:22.738Z,15.20
2019-04-04T13:05:52.533Z,16.43
2019-04-04T13:08:21.924Z,17.37
2019-04-04T13:10:51.664Z,20.10
2019-04-04T13:13:20.989Z,15.57
2019-04-04T13:15:50.263Z,18.83
2019-04-04T13:18:19.616Z,23.60
2019-04-04T13:20:48.912Z,20.33
2019-04-04T13:23:18.285Z,17.13
2019-04-04T13:25:47.579Z,21.33
2019-04-04T13:28:16.901Z,21.10
2019-04-04T13:30:46.196Z,20.83
2019-04-04T13:33:15.492Z,19.60
2019-04-04T13:35:44.801Z,20.20
2019-04-04T13:38:14.167Z,23.93
2019-04-04T13:40:45.751Z,22.97
2019-04-04T13:43:14.945Z,23.20
2019-04-04T13:45:44.274Z,28.73
2019-04-04T13:48:13.622Z,19.03
2019-04-04T13:50:42.971Z,20.50
2019-04-04T13:53:12.874Z,19.33
2019-04-04T13:55:42.163Z,21.50
2019-04-04T13:58:12.424Z,20.93
2019-04-04T14:00:41.900Z,22.53
2019-04-04T14:03:11.272Z,24.90
2019-04-04T14:05:40.643Z,23.67
2019-04-04T14:08:09.955Z,26.53
2019-04-04T14:10:39.277Z,29.63
2019-04-04T14:13:08.612Z,29.43
2019-04-04T14:15:37.967Z,24.07
2019-04-04T14:18:22.236Z,26.17
2019-04-04T14:21:03.403Z,25.20
2019-04-04T14:23:24.793Z,28.43
2019-04-04T14:25:55.400Z,20.43
2019-04-04T14:28:26.507Z,19.57
2019-04-04T14:30:55.824Z,17.27
2019-04-04T14:33:25.143Z,16.43
2019-04-04T14:35:54.518Z,17.10
2019-04-04T14:38:23.974Z,16.40
2019-04-04T14:40:53.380Z,17.73
2019-04-04T14:43:23.206Z,14.73
2019-04-04T14:45:52.630Z,12.10
2019-04-04T14:48:22.114Z,11.90
2019-04-04T14:50:51.421Z,12.70
2019-04-04T14:53:20.729Z,15.20
2019-04-04T14:55:50.002Z,13.63
2019-04-04T14:58:19.396Z,15.30
2019-04-04T15:00:49.079Z,12.17
2019-04-04T15:03:19.992Z,13.50
2019-04-04T15:05:49.337Z,13.20
2019-04-04T15:08:19.994Z,12.90
2019-04-04T15:10:49.709Z,14.40
2019-04-04T15:13:19.091Z,13.83
2019-04-04T15:16:13.532Z,14.23
2019-04-04T15:18:42.858Z,16.13
2019-04-04T15:21:12.250Z,15.50
2019-04-04T15:23:41.652Z,15.47
2019-04-04T15:26:11.176Z,18.70
2019-04-04T15:28:40.556Z,15.60
2019-04-04T15:31:09.981Z,16.03
2019-04-04T15:33:39.260Z,14.40
2019-04-04T15:36:08.539Z,15.63
2019-04-04T15:38:37.848Z,13.57
2019-04-04T15:41:07.181Z,12.97
2019-04-04T15:43:37.523Z,13.97
2019-04-04T15:46:07.415Z,13.40
2019-04-04T15:48:36.691Z,12.70
2019-04-04T15:51:06.448Z,12.40
2019-04-04T15:53:35.721Z,15.27
2019-04-04T15:56:05.092Z,11.03
2019-04-04T15:58:34.468Z,13.57
2019-04-04T16:01:03.829Z,15.00
2019-04-04T16:03:33.152Z,12.50
2019-04-04T16:06:02.480Z,14.27
2019-04-04T16:08:31.884Z,13.57
2019-04-04T16:11:01.282Z,12.00
2019-04-04T16:13:30.648Z,12.90
2019-04-04T16:15:59.976Z,12.03
2019-04-04T16:18:32.340Z,11.70
2019-04-04T16:21:01.732Z,14.40
2019-04-04T16:23:31.013Z,11.33
2019-04-04T16:26:00.313Z,10.93
2019-04-04T16:28:29.649Z,14.03
2019-04-04T16:30:58.952Z,12.93
2019-04-04T16:33:28.252Z,11.87
2019-04-04T16:35:57.588Z,12.73
2019-04-04T16:38:26.999Z,13.03
2019-04-04T16:40:56.307Z,12.87
2019-04-04T16:43:25.684Z,12.20
2019-04-04T16:45:55.086Z,12.90
2019-04-04T16:48:24.358Z,12.17
2019-04-04T16:50:53.814Z,14.77
2019-04-04T16:53:23.128Z,12.63
2019-04-04T16:55:52.822Z,11.97
2019-04-04T16:58:22.121Z,13.30
2019-04-04T17:00:51.436Z,10.80
2019-04-04T17:03:20.740Z,15.50
2019-04-04T17:05:50.052Z,13.57
2019-04-04T17:08:19.415Z,11.37
2019-04-04T17:10:48.701Z,11.07
2019-04-04T17:13:17.994Z,12.60
2019-04-04T17:15:47.342Z,12.47
2019-04-04T17:18:16.620Z,13.83
2019-04-04T17:20:46.238Z,13.70
2019-04-04T17:23:15.539Z,14.40
2019-04-04T17:25:44.809Z,14.17
2019-04-04T17:28:14.483Z,12.00
2019-04-04T17:30:44.209Z,9.47
2019-04-04T17:33:13.742Z,13.43
2019-04-04T17:35:43.156Z,14.93
2019-04-04T17:38:13.213Z,14.97
2019-04-04T17:40:42.655Z,14.40
2019-04-04T17:43:12.021Z,12.90
2019-04-04T17:45:41.558Z,11.83
2019-04-04T17:48:10.911Z,12.63
2019-04-04T17:50:40.252Z,11.93
2019-04-04T17:53:09.860Z,11.27
2019-04-04T17:55:39.481Z,12.90
2019-04-04T17:58:09.293Z,14.40
2019-04-04T18:00:39.062Z,10.77
2019-04-04T18:03:08.489Z,13.57
2019-04-04T18:05:39.945Z,13.60
2019-04-04T18:08:09.245Z,11.73
2019-04-04T18:10:38.642Z,16.23
2019-04-04T18:13:07.995Z,14.13
2019-04-04T18:15:37.300Z,12.43
2019-04-04T18:18:07.369Z,14.33
2019-04-04T18:20:36.719Z,13.50
2019-04-04T18:23:08.644Z,16.27
2019-04-04T18:25:38.108Z,14.90
2019-04-04T18:28:07.799Z,14.13
2019-04-04T18:30:37.069Z,15.03
2019-04-04T18:33:06.499Z,15.70
2019-04-04T18:35:38.680Z,14.23
2019-04-04T18:38:21.972Z,15.97
2019-04-04T18:40:51.368Z,15.13
2019-04-04T18:43:20.708Z,15.40
2019-04-04T18:45:50.080Z,14.30
2019-04-04T18:48:19.359Z,15.03
2019-04-04T18:50:49.044Z,13.53
2019-04-04T18:53:18.488Z,16.23
2019-04-04T18:55:47.820Z,18.20
2019-04-04T18:58:17.183Z,16.30
2019-04-04T19:00:46.556Z,16.40
2019-04-04T19:03:15.895Z,13.90
2019-04-04T19:05:45.774Z,17.27
2019-04-04T19:08:15.478Z,14.17
2019-04-04T19:10:44.798Z,17.40
2019-04-04T19:13:14.161Z,15.00
2019-04-04T19:15:43.586Z,17.03
2019-04-04T19:18:12.985Z,15.63
2019-04-04T19:20:42.715Z,18.10
2019-04-04T19:23:12.284Z,18.73
2019-04-04T19:25:41.809Z,15.13
2019-04-04T19:28:11.122Z,18.57
2019-04-04T19:30:42.751Z,16.50
2019-04-04T19:33:12.265Z,16.07
2019-04-04T19:35:41.629Z,19.77
2019-04-04T19:38:10.971Z,16.30
2019-04-04T19:40:40.741Z,17.10
2019-04-04T19:43:17.990Z,17.50
2019-04-04T19:45:41.195Z,16.33
2019-04-04T19:48:10.608Z,17.40
2019-04-04T19:50:40.422Z,17.93
2019-04-04T19:53:09.908Z,16.57
2019-04-04T19:55:39.235Z,19.10
2019-04-04T19:58:08.813Z,17.67
2019-04-04T20:00:38.150Z,17.40
2019-04-04T20:03:07.511Z,19.23
2019-04-04T20:05:36.876Z,19.27
2019-04-04T20:08:06.556Z,17.67
2019-04-04T20:10:35.895Z,20.33
2019-04-04T20:13:05.233Z,15.77
2019-04-04T20:15:34.602Z,18.30
2019-04-04T20:18:03.932Z,20.53
2019-04-04T20:20:33.227Z,18.40
2019-04-04T20:23:02.547Z,17.57
2019-04-04T20:25:31.852Z,17.10
2019-04-04T20:28:01.197Z,16.50
2019-04-04T20:30:39.969Z,18.10
2019-04-04T20:33:09.436Z,19.77
2019-04-04T20:35:39.645Z,17.27
2019-04-04T20:38:08.940Z,20.50
2019-04-04T20:40:38.297Z,25.53
2019-04-04T20:43:07.591Z,23.70
2019-04-04T20:45:36.896Z,17.33
2019-04-04T20:48:06.196Z,20.87
2019-04-04T20:50:35.970Z,18.50
2019-04-04T20:53:09.193Z,18.77
2019-04-04T20:55:38.610Z,19.10
2019-04-04T20:58:07.925Z,18.40
2019-04-04T21:00:37.224Z,17.50
2019-04-04T21:03:06.522Z,18.60
2019-04-04T21:05:35.831Z,21.83
2019-04-04T21:08:05.107Z,20.37
2019-04-04T21:10:34.654Z,19.47
2019-04-04T21:13:05.026Z,22.27
2019-04-04T21:15:34.734Z,20.07
2019-04-04T21:18:36.391Z,21.07
2019-04-04T21:21:05.635Z,17.30
2019-04-04T21:23:35.294Z,17.80
2019-04-04T21:26:04.942Z,20.20
2019-04-04T21:28:34.247Z,19.27
2019-04-04T21:31:03.576Z,21.33
2019-04-04T21:33:34.359Z,18.93
2019-04-04T21:36:03.710Z,18.63
2019-04-04T21:38:33.020Z,19.43
2019-04-04T21:41:02.352Z,19.43
2019-04-04T21:43:31.662Z,19.80
2019-04-04T21:46:00.983Z,21.57
2019-04-04T21:48:30.288Z,17.50
2019-04-04T21:50:59.629Z,21.20
2019-04-04T21:53:28.951Z,19.00
2019-04-04T21:55:58.286Z,23.50
2019-04-04T21:58:28.099Z,26.03
2019-04-04T22:00:57.955Z,17.60
2019-04-04T22:03:27.410Z,19.60
2019-04-04T22:05:57.165Z,19.87
2019-04-04T22:08:26.845Z,19.43
2019-04-04T22:10:56.229Z,19.90
2019-04-04T22:13:25.630Z,19.70
2019-04-04T22:15:55.502Z,22.77
2019-04-04T22:18:24.815Z,21.30
2019-04-04T22:20:54.161Z,16.83
2019-04-04T22:23:23.459Z,24.00
2019-04-04T22:25:52.778Z,18.33
2019-04-04T22:28:22.197Z,20.90
2019-04-04T22:30:51.505Z,19.13
2019-04-04T22:33:20.840Z,18.03
2019-04-04T22:35:50.162Z,21.17
2019-04-04T22:38:19.503Z,19.23
2019-04-04T22:40:48.817Z,19.87
2019-04-04T22:43:18.120Z,20.53
2019-04-04T22:45:47.440Z,21.80
2019-04-04T22:48:16.780Z,19.87
2019-04-04T22:50:46.083Z,20.93
2019-04-04T22:53:15.396Z,19.90
2019-04-04T22:55:44.721Z,23.03
2019-04-04T22:58:14.004Z,19.67
2019-04-04T23:00:43.317Z,26.00
2019-04-04T23:03:12.761Z,20.90
2019-04-04T23:05:42.576Z,20.03
2019-04-04T23:08:11.949Z,20.40
2019-04-04T23:10:41.319Z,22.70
2019-04-04T23:13:10.691Z,20.67
2019-04-04T23:15:40.460Z,25.40
2019-04-04T23:18:09.765Z,22.60
2019-04-04T23:20:39.148Z,23.27
2019-04-04T23:23:08.869Z,31.63
2019-04-04T23:25:38.312Z,31.60
2019-04-04T23:28:07.678Z,27.57
2019-04-04T23:30:37.109Z,28.30
2019-04-04T23:33:06.525Z,22.70
2019-04-04T23:35:35.828Z,21.00
2019-04-04T23:38:05.241Z,23.00
2019-04-04T23:40:34.671Z,21.40
2019-04-04T23:43:03.949Z,24.87
2019-04-04T23:45:33.308Z,23.67
2019-04-04T23:48:02.692Z,20.70
2019-04-04T23:50:32.048Z,23.00
2019-04-04T23:53:01.337Z,22.13
2019-04-04T23:55:30.665Z,20.80
2019-04-04T23:57:59.996Z,26.60
